OKI weather

Oki Airport
Okinoshima, Shimane Prefecture, Japan

Public forecast

Using degrees Celsius for public forecast. Weather courtesy of forecast.io.

METAR (pilot weather report)

Closest report is Miho Yonago Airport, 41.6 nm (77.0 km) S. Retrieved 2019/05/21 07:00 UTC (57 minutes ago):

RJOH 210700Z 27010KT 230V290 9999 FEW050 BKN300 22/06 Q1005

TAF (pilot weather forecast)

Closest forecast is Miho Yonago Airport, 41.6 nm (77.0 km) S. Retrieved 2019/05/21 06:00 UTC (2 hours ago):

TAF RJOH 210507Z 2106/2212 24008KT 9999 FEW040